»·PEaware :: N373EB KWHP-KPRB

N373EB :: KWHP-KPRB

FLIGHT INFORMATION

Flight Status: Arrived
Operator: Privately registered:
United States
More flights under this callsign
Pilot: Peder R. (40111)
Aircraft: BEECH AIRCRAFT DEBONAIR BONANZA
(BE33)
More flights by this aircraft type
Origin: KWHP Whiteman
United States
Destination: KPRB Paso Robles Mun
United States
More flights between these airports :: More routes between these airports
Route: WHP1 VNY V186 FIM V386 RZS V25 PRB
File this flight plan on PilotEdge
Remarks:
Altitude:
(Current/Filed)
8,000ft
Speed:
(Current/Filed)
155kts
Departed: 31-Aug-23 01:54 PM
Arrived: 31-Aug-23 03:14 PM
Distance/Time
Traveled:
138nm/1:20
Distance/Time
To Go:
Arrived

Flight Plot

Page will automatically refresh every two minutes.

Flight plan parsing failed; only flown route is shown


Map Options




Map Legend


Flown Route
Filed Route
Departure Airport
Arrival Airport
Navaid (VOR, NDB)
Fix

Horizontal Profiles

Position Reports

Time Latitude Longitude Heading Altitude Ground
Speed
31-Aug-23 13:40 34.259628 -118.412543 318 992ft 0kts
31-Aug-23 13:41 34.259628 -118.412543 318 992ft 0kts
31-Aug-23 13:42 34.259628 -118.412543 318 992ft 0kts
31-Aug-23 13:43 34.259628 -118.412543 318 992ft 0kts
31-Aug-23 13:44 34.259628 -118.412543 318 992ft 0kts
31-Aug-23 13:45 34.259628 -118.412543 318 992ft 0kts
31-Aug-23 13:46 34.259628 -118.412543 318 992ft 0kts
31-Aug-23 13:47 34.259685 -118.413213 317 993ft 9kts
31-Aug-23 13:48 34.262471 -118.416152 318 1000ft 12kts
31-Aug-23 13:49 34.263545 -118.416977 274 1001ft 0kts
31-Aug-23 13:50 34.263545 -118.416977 274 1001ft 0kts
31-Aug-23 13:51 34.263550 -118.417056 271 1001ft 6kts
31-Aug-23 13:52 34.263209 -118.417579 140 999ft 15kts
31-Aug-23 13:53 34.246541 -118.404733 182 1573ft 94kts
31-Aug-23 13:54 34.231692 -118.432208 254 2465ft 108kts
31-Aug-23 13:55 34.226688 -118.470391 254 3188ft 115kts
31-Aug-23 13:56 34.248015 -118.499079 341 3921ft 122kts
31-Aug-23 13:57 34.280855 -118.514137 337 4658ft 130kts
31-Aug-23 13:58 34.280285 -118.546811 185 5368ft 110kts
31-Aug-23 13:59 34.255215 -118.536986 214 5997ft 119kts
31-Aug-23 14:00 34.255866 -118.578043 290 6709ft 133kts
31-Aug-23 14:01 34.270053 -118.619736 289 7349ft 134kts
31-Aug-23 14:02 34.284387 -118.661718 288 7931ft 135kts
31-Aug-23 14:03 34.300302 -118.710367 287 7984ft 165kts
31-Aug-23 14:04 34.318046 -118.764617 288 7906ft 178kts
31-Aug-23 14:05 34.335852 -118.819578 286 7897ft 173kts
31-Aug-23 14:06 34.353535 -118.873542 288 7929ft 172kts
31-Aug-23 14:07 34.364930 -118.929213 279 7929ft 170kts
31-Aug-23 14:08 34.374747 -118.985427 275 7932ft 170kts
31-Aug-23 14:15 34.435019 -119.376210 280 7972ft 171kts
31-Aug-23 14:16 34.445568 -119.433116 280 7973ft 171kts
31-Aug-23 14:17 34.455310 -119.489791 283 7981ft 172kts
31-Aug-23 14:18 34.466724 -119.546278 284 7998ft 171kts
31-Aug-23 14:19 34.477065 -119.603008 285 8013ft 171kts
31-Aug-23 14:20 34.489436 -119.659449 284 8028ft 171kts
31-Aug-23 14:21 34.500530 -119.716043 282 8028ft 171kts
31-Aug-23 14:22 34.513612 -119.771338 316 8035ft 169kts
31-Aug-23 14:23 34.553388 -119.801589 332 7993ft 169kts
31-Aug-23 14:24 34.593829 -119.831084 332 7973ft 170kts
31-Aug-23 14:25 34.634966 -119.860648 330 7957ft 171kts
31-Aug-23 14:26 34.675773 -119.890333 331 7990ft 170kts
31-Aug-23 14:28 34.716708 -119.920854 330 7998ft 172kts
31-Aug-23 14:29 34.758419 -119.950436 329 8010ft 173kts
31-Aug-23 14:30 34.796524 -119.980292 331 8007ft 154kts
31-Aug-23 14:31 34.832761 -120.007002 336 7951ft 150kts
31-Aug-23 14:32 34.868732 -120.031559 334 7977ft 147kts
31-Aug-23 14:33 34.904289 -120.057344 333 8003ft 147kts
31-Aug-23 14:34 34.939736 -120.083642 333 8003ft 150kts
31-Aug-23 14:35 34.976070 -120.110144 332 8035ft 151kts
31-Aug-23 14:36 35.014429 -120.135977 332 7976ft 159kts
31-Aug-23 14:37 35.051741 -120.163631 329 8035ft 157kts
31-Aug-23 14:38 35.088571 -120.193263 328 8061ft 157kts
31-Aug-23 14:39 35.125623 -120.222607 333 8049ft 158kts
31-Aug-23 14:40 35.164089 -120.249543 331 8013ft 159kts
31-Aug-23 14:41 35.201710 -120.277549 333 8048ft 157kts
31-Aug-23 14:42 35.239643 -120.304986 332 8049ft 157kts
31-Aug-23 14:43 35.278340 -120.332849 328 7998ft 165kts
31-Aug-23 14:44 35.316962 -120.362298 328 8027ft 164kts
31-Aug-23 14:45 35.356005 -120.391204 328 8051ft 165kts
31-Aug-23 14:46 35.395995 -120.418938 327 8046ft 165kts
31-Aug-23 14:47 35.435356 -120.449680 326 8016ft 167kts
31-Aug-23 14:48 35.475159 -120.479866 328 7985ft 168kts
31-Aug-23 14:49 35.515657 -120.510524 328 7954ft 169kts
31-Aug-23 14:50 35.556220 -120.540282 328 7991ft 163kts
31-Aug-23 14:50 35.586352 -120.563427 328 7971ft 143kts
31-Aug-23 14:51 35.618592 -120.587547 328 8001ft 128kts
31-Aug-23 14:53 35.654142 -120.613348 327 7966ft 121kts
31-Aug-23 14:54 35.690311 -120.616083 30 6674ft 179kts
31-Aug-23 14:55 35.729979 -120.588415 31 5998ft 162kts
31-Aug-23 14:55 35.764272 -120.567463 31 5237ft 165kts
31-Aug-23 14:56 35.803825 -120.541575 30 4725ft 146kts
31-Aug-23 14:57 35.837371 -120.519512 29 4593ft 127kts
31-Aug-23 14:59 35.874085 -120.522286 317 4420ft 124kts
31-Aug-23 15:00 35.901272 -120.546780 326 4410ft 121kts
31-Aug-23 15:00 35.925648 -120.563598 318 4410ft 118kts
31-Aug-23 15:01 35.918722 -120.590814 184 4438ft 99kts
31-Aug-23 15:02 35.897952 -120.568800 134 4408ft 103kts
31-Aug-23 15:03 35.878872 -120.542287 136 4365ft 103kts
31-Aug-23 15:05 35.854922 -120.515393 181 4226ft 106kts
31-Aug-23 15:05 35.830493 -120.526110 209 3700ft 121kts
31-Aug-23 15:06 35.802571 -120.544717 206 3489ft 99kts
31-Aug-23 15:07 35.774056 -120.562651 209 2705ft 126kts
31-Aug-23 15:08 35.748266 -120.580271 209 2400ft 96kts
31-Aug-23 15:09 35.724881 -120.596186 208 1876ft 95kts
31-Aug-23 15:10 35.705383 -120.609264 208 1378ft 71kts
31-Aug-23 15:11 35.689446 -120.619919 208 1077ft 56kts
31-Aug-23 15:12 35.675332 -120.629391 207 809ft 49kts
31-Aug-23 15:13 35.670091 -120.634008 272 809ft 0kts
31-Aug-23 15:14 35.670090 -120.635231 270 807ft 15kts
31-Aug-23 15:15 35.671490 -120.636599 7 804ft 8kts

Navigation Log

Ident Type
Flight plan parsing failed, navigation log unavailable